Time;durP1;ratioP1;P1;durP2;ratioP2;P2;SDS_P1;SDS_P2;PMS_P1;PMS_P2;Temp;Humidity;BMP_temperature;BMP_pressure;BME280_temperature;BME280_humidity;BME280_pressure;Samples;Min_cycle;Max_cycle;Signal;HPM_P1;HPM_P2
2024/01/19 00:01:15;;;;;;;21.97;12.83;;;-2.10;99.90;;;;;;5075733;28;20219;-74
2024/01/19 00:03:43;;;;;;;18.53;12.67;;;-2.10;99.90;;;;;;5075566;28;20595;-74
2024/01/19 00:06:10;;;;;;;19.43;12.67;;;-2.20;99.90;;;;;;5075237;28;20197;-74
2024/01/19 00:08:36;;;;;;;21.33;13.30;;;-2.10;99.90;;;;;;5075359;28;20255;-74
2024/01/19 00:11:03;;;;;;;24.50;13.80;;;-2.20;99.90;;;;;;5075246;28;20201;-72
2024/01/19 00:13:30;;;;;;;22.60;13.77;;;-2.20;99.90;;;;;;5075255;28;20197;-72
2024/01/19 00:15:56;;;;;;;20.53;13.37;;;-2.10;99.90;;;;;;5075335;28;20200;-72
2024/01/19 00:18:26;;;;;;;23.27;13.37;;;-2.20;99.90;;;;;;5075229;28;20193;-73
2024/01/19 00:20:54;;;;;;;29.43;14.90;;;-2.20;99.90;;;;;;5075151;28;20607;-73
2024/01/19 00:23:20;;;;;;;22.10;13.63;;;-2.20;99.90;;;;;;5075144;28;20289;-72
2024/01/19 00:25:47;;;;;;;23.73;13.13;;;-2.20;99.90;;;;;;5074990;28;20201;-72
2024/01/19 00:28:14;;;;;;;21.90;13.17;;;-2.20;99.90;;;;;;5088545;28;20281;-73
2024/01/19 00:30:40;;;;;;;22.57;13.97;;;-2.20;99.90;;;;;;5094151;28;20744;-73
2024/01/19 00:33:07;;;;;;;24.17;13.60;;;-2.20;99.90;;;;;;5098216;28;20226;-74
2024/01/19 00:35:32;;;;;;;22.30;13.60;;;-2.20;99.90;;;;;;5095117;28;20688;-74
2024/01/19 00:38:00;;;;;;;23.73;13.60;;;-2.20;99.90;;;;;;5095003;28;20258;-74
2024/01/19 00:40:27;;;;;;;22.70;13.50;;;-2.20;99.90;;;;;;5094930;28;20252;-74
2024/01/19 00:42:54;;;;;;;24.43;14.47;;;-2.20;99.90;;;;;;5095306;28;20200;-73
2024/01/19 00:45:21;;;;;;;22.30;14.10;;;-2.20;99.90;;;;;;5095126;28;20196;-74
2024/01/19 00:47:47;;;;;;;38.90;14.10;;;-2.20;99.90;;;;;;5094997;28;20329;-73
2024/01/19 00:50:14;;;;;;;21.47;13.97;;;-2.20;99.90;;;;;;5094855;28;20197;-72
2024/01/19 00:52:41;;;;;;;21.03;13.33;;;-2.10;99.90;;;;;;5094408;28;20262;-73
2024/01/19 00:55:10;;;;;;;26.67;14.30;;;-2.10;99.90;;;;;;5094645;28;20259;-73
2024/01/19 00:57:37;;;;;;;20.33;13.10;;;-2.10;99.90;;;;;;5094804;28;20941;-73
2024/01/19 01:00:05;;;;;;;20.80;13.23;;;-2.10;99.90;;;;;;5094801;28;20200;-73
2024/01/19 01:02:32;;;;;;;21.70;13.73;;;-2.10;99.90;;;;;;5094689;28;20192;-73
2024/01/19 01:04:59;;;;;;;26.97;14.40;;;-2.10;99.90;;;;;;5094571;28;20246;-73
2024/01/19 01:07:26;;;;;;;20.90;13.50;;;-2.10;99.90;;;;;;5094431;28;20196;-73
2024/01/19 01:09:52;;;;;;;21.37;13.20;;;-2.20;99.90;;;;;;5094605;28;20200;-73
2024/01/19 01:12:21;;;;;;;22.30;13.30;;;-2.20;99.90;;;;;;5094481;28;20254;-73
2024/01/19 01:14:48;;;;;;;17.80;11.37;;;-2.20;99.90;;;;;;5094418;28;20378;-73
2024/01/19 01:17:15;;;;;;;22.80;12.77;;;-2.20;99.90;;;;;;5094346;28;20212;-73
2024/01/19 01:19:42;;;;;;;20.03;13.00;;;-2.10;99.90;;;;;;5094306;28;20287;-74
2024/01/19 01:22:12;;;;;;;20.07;12.47;;;-2.10;99.90;;;;;;5094118;28;20196;-72
2024/01/19 01:24:39;;;;;;;25.87;13.00;;;-2.10;99.90;;;;;;5094475;28;20231;-72
2024/01/19 01:27:05;;;;;;;23.40;13.30;;;-2.10;99.90;;;;;;5094150;28;20286;-72
2024/01/19 01:29:33;;;;;;;20.07;13.17;;;-2.10;99.90;;;;;;5094204;28;20204;-72
2024/01/19 01:32:00;;;;;;;26.13;14.03;;;-2.10;99.90;;;;;;5094145;28;20200;-72
2024/01/19 01:34:27;;;;;;;23.07;13.50;;;-2.20;99.90;;;;;;5093846;28;20200;-73
2024/01/19 01:36:53;;;;;;;25.70;13.73;;;-2.10;99.90;;;;;;5093837;28;20232;-72
2024/01/19 01:39:20;;;;;;;25.27;14.23;;;-2.20;99.90;;;;;;5094146;28;20269;-72
2024/01/19 01:41:48;;;;;;;20.60;13.47;;;-2.20;99.90;;;;;;5093930;28;20266;-72
2024/01/19 01:44:15;;;;;;;20.73;13.80;;;-2.20;99.90;;;;;;5093991;28;20199;-72
2024/01/19 01:46:43;;;;;;;24.43;14.87;;;-2.20;99.90;;;;;;5093849;28;20204;-73
2024/01/19 01:49:10;;;;;;;24.53;14.40;;;-2.20;99.90;;;;;;5093774;28;20231;-73
2024/01/19 01:51:36;;;;;;;23.67;14.17;;;-2.20;99.90;;;;;;5093842;28;20253;-73
2024/01/19 01:54:06;;;;;;;26.27;15.00;;;-2.30;99.90;;;;;;5093826;28;20197;-73
2024/01/19 01:56:33;;;;;;;26.00;14.27;;;-2.30;99.90;;;;;;5093542;28;20203;-73
2024/01/19 01:59:00;;;;;;;23.10;14.43;;;-2.30;99.90;;;;;;5093550;28;20192;-73
2024/01/19 02:01:27;;;;;;;22.37;14.83;;;-2.30;99.90;;;;;;5093550;28;20199;-73
2024/01/19 02:03:57;;;;;;;28.10;14.90;;;-2.30;99.90;;;;;;5093412;28;20196;-73
2024/01/19 02:06:23;;;;;;;27.20;16.53;;;-2.30;99.90;;;;;;5093577;28;20559;-73
2024/01/19 02:08:50;;;;;;;25.47;15.63;;;-2.40;99.90;;;;;;5093489;28;20255;-72
2024/01/19 02:11:17;;;;;;;27.40;15.87;;;-2.30;99.90;;;;;;5093229;28;20683;-72
2024/01/19 02:13:43;;;;;;;28.83;15.27;;;-2.40;99.90;;;;;;5093283;28;20201;-73
2024/01/19 02:16:10;;;;;;;25.83;15.47;;;-2.40;99.90;;;;;;5093260;28;20250;-73
2024/01/19 02:18:36;;;;;;;28.13;15.47;;;-2.40;99.90;;;;;;5093579;28;20245;-72
2024/01/19 02:21:05;;;;;;;28.47;16.57;;;-2.40;99.90;;;;;;5093110;28;20729;-72
2024/01/19 02:23:36;;;;;;;29.10;17.07;;;-2.40;99.90;;;;;;5093010;28;20204;-72
2024/01/19 02:26:05;;;;;;;24.80;16.43;;;-2.40;99.90;;;;;;5093135;28;20249;-72
2024/01/19 02:28:32;;;;;;;31.10;16.93;;;-2.40;99.90;;;;;;5092858;28;20270;-73
2024/01/19 02:30:58;;;;;;;29.73;17.00;;;-2.40;99.90;;;;;;5092809;28;20196;-73
2024/01/19 02:33:25;;;;;;;30.30;17.67;;;-2.50;99.90;;;;;;5093204;28;20204;-73
2024/01/19 02:35:51;;;;;;;31.70;17.57;;;-2.60;99.90;;;;;;5092828;28;20672;-73
2024/01/19 02:38:18;;;;;;;34.97;18.73;;;-2.60;99.90;;;;;;5092974;28;20293;-73
2024/01/19 02:40:44;;;;;;;27.80;17.43;;;-2.70;99.90;;;;;;5092875;28;20196;-73
2024/01/19 02:43:12;;;;;;;33.57;17.97;;;-2.80;99.90;;;;;;5092723;28;20651;-73
2024/01/19 02:45:39;;;;;;;31.93;18.03;;;-2.80;99.90;;;;;;5092642;28;20249;-72
2024/01/19 02:48:06;;;;;;;32.03;18.60;;;-2.80;99.90;;;;;;5092999;28;20250;-73
2024/01/19 02:50:33;;;;;;;38.57;18.80;;;-2.90;99.90;;;;;;5092847;28;20199;-73
2024/01/19 02:52:59;;;;;;;34.00;19.47;;;-3.00;99.90;;;;;;5092288;28;20229;-72
2024/01/19 02:55:26;;;;;;;38.13;20.40;;;-3.00;99.90;;;;;;5092722;28;20200;-73
2024/01/19 02:57:52;;;;;;;34.03;20.00;;;-3.10;99.90;;;;;;5092432;28;20250;-72
2024/01/19 03:00:20;;;;;;;34.60;19.37;;;-3.20;99.90;;;;;;5092608;28;20273;-73
2024/01/19 03:02:47;;;;;;;30.13;18.50;;;-3.10;99.90;;;;;;5092847;28;20211;-73
2024/01/19 03:05:14;;;;;;;32.13;18.57;;;-3.20;99.90;;;;;;5092737;28;20219;-73
2024/01/19 03:07:41;;;;;;;34.97;19.70;;;-3.20;99.90;;;;;;5092512;28;20651;-72
2024/01/19 03:10:08;;;;;;;34.00;19.83;;;-3.20;99.90;;;;;;5092585;28;20199;-73
2024/01/19 03:12:35;;;;;;;33.07;19.83;;;-3.30;99.90;;;;;;5092528;28;20204;-74
2024/01/19 03:15:02;;;;;;;34.97;20.00;;;-3.40;99.90;;;;;;5092697;28;20201;-73
2024/01/19 03:17:30;;;;;;;39.13;20.17;;;-3.40;99.90;;;;;;5092612;28;20229;-73
2024/01/19 03:19:56;;;;;;;37.53;21.83;;;-3.30;99.90;;;;;;5092681;28;20256;-73
2024/01/19 03:22:23;;;;;;;36.40;22.10;;;-3.20;99.90;;;;;;5092594;28;20200;-73
2024/01/19 03:24:49;;;;;;;41.87;23.93;;;-3.10;99.90;;;;;;5092445;28;20247;-73
2024/01/19 03:27:16;;;;;;;45.00;24.17;;;-3.10;99.90;;;;;;5092415;28;20230;-73
2024/01/19 03:29:44;;;;;;;50.97;26.97;;;-2.90;99.90;;;;;;5092603;28;20250;-73
2024/01/19 03:32:10;;;;;;;49.80;26.80;;;-2.70;99.90;;;;;;5092541;28;20254;-73
2024/01/19 03:34:38;;;;;;;53.07;29.07;;;-2.60;99.90;;;;;;5092446;28;20196;-73
2024/01/19 03:37:05;;;;;;;56.47;30.07;;;-2.60;99.90;;;;;;5092314;28;20697;-72
2024/01/19 03:39:32;;;;;;;56.27;29.93;;;-2.50;99.90;;;;;;5092155;28;20241;-73
2024/01/19 03:41:58;;;;;;;47.20;27.83;;;-2.50;99.90;;;;;;5092502;28;20234;-73
2024/01/19 03:44:25;;;;;;;50.23;28.07;;;-2.50;99.90;;;;;;5092160;28;20598;-73
2024/01/19 03:46:52;;;;;;;57.20;28.23;;;-2.50;99.90;;;;;;5092385;28;20200;-73
2024/01/19 03:49:19;;;;;;;47.07;26.97;;;-2.50;99.90;;;;;;5092443;28;20207;-73
2024/01/19 03:52:01;;;;;;;50.93;28.93;;;-2.50;99.90;;;;;;5092344;28;20206;-73
2024/01/19 03:54:28;;;;;;;51.03;28.57;;;-2.50;99.90;;;;;;5092862;28;20200;-73
2024/01/19 03:56:56;;;;;;;53.57;28.43;;;-2.50;99.90;;;;;;5092454;28;20199;-73
2024/01/19 03:59:23;;;;;;;49.50;27.10;;;-2.60;99.90;;;;;;5092221;28;20229;-72
2024/01/19 04:01:49;;;;;;;53.67;28.40;;;-2.70;99.90;;;;;;5092326;28;20207;-73
2024/01/19 04:04:16;;;;;;;52.17;29.07;;;-2.70;99.90;;;;;;5092411;28;20664;-73
2024/01/19 04:06:43;;;;;;;57.33;32.03;;;-2.60;99.90;;;;;;5095802;28;20207;-73
2024/01/19 04:09:11;;;;;;;59.90;31.47;;;-2.60;99.90;;;;;;5096059;28;20231;-73
2024/01/19 04:11:38;;;;;;;65.53;33.53;;;-2.60;99.90;;;;;;5096002;28;20194;-73
2024/01/19 04:14:05;;;;;;;57.67;31.40;;;-2.70;99.90;;;;;;5095655;28;20658;-73
2024/01/19 04:16:31;;;;;;;55.50;29.07;;;-2.60;99.90;;;;;;5095645;28;20556;-73
2024/01/19 04:18:58;;;;;;;58.93;30.73;;;-2.60;99.90;;;;;;5095506;28;20280;-73
2024/01/19 04:21:25;;;;;;;56.67;31.50;;;-2.60;99.90;;;;;;5095492;28;20200;-74
2024/01/19 04:23:52;;;;;;;57.77;32.20;;;-2.50;99.90;;;;;;5095659;28;20207;-73
2024/01/19 04:26:20;;;;;;;61.23;33.60;;;-2.60;99.90;;;;;;5095454;28;20227;-73
2024/01/19 04:28:47;;;;;;;56.73;33.27;;;-2.70;99.90;;;;;;5095382;28;20311;-73
2024/01/19 04:31:14;;;;;;;62.07;33.53;;;-2.80;99.90;;;;;;5095336;28;20211;-73
2024/01/19 04:33:40;;;;;;;60.97;34.07;;;-2.70;99.90;;;;;;5095069;28;20246;-72
2024/01/19 04:36:08;;;;;;;59.50;31.83;;;-2.70;99.90;;;;;;5095381;28;20200;-73
2024/01/19 04:38:34;;;;;;;57.03;31.80;;;-2.70;99.90;;;;;;5094956;28;20634;-73
2024/01/19 04:41:02;;;;;;;51.73;30.20;;;-2.70;99.90;;;;;;5095125;28;20216;-72
2024/01/19 04:43:31;;;;;;;59.80;30.07;;;-2.70;99.90;;;;;;5095051;28;20287;-73
2024/01/19 04:45:58;;;;;;;52.03;29.00;;;-2.70;99.90;;;;;;5094937;28;20206;-73
2024/01/19 04:48:24;;;;;;;51.70;29.57;;;-2.60;99.90;;;;;;5094800;28;20200;-73
2024/01/19 04:50:51;;;;;;;53.03;30.63;;;-2.60;99.90;;;;;;5095070;28;20242;-73
2024/01/19 04:53:18;;;;;;;63.77;30.10;;;-2.60;99.90;;;;;;5094970;28;20201;-72
2024/01/19 04:55:44;;;;;;;55.40;29.90;;;-2.50;99.90;;;;;;5094799;28;20196;-73
2024/01/19 04:58:11;;;;;;;54.03;31.07;;;-2.50;99.90;;;;;;5094592;28;20220;-73
2024/01/19 05:00:39;;;;;;;64.23;31.47;;;-2.50;99.90;;;;;;5094683;28;20203;-73
2024/01/19 05:03:05;;;;;;;53.67;30.40;;;-2.60;99.90;;;;;;5094514;28;20192;-73
2024/01/19 05:05:32;;;;;;;48.40;28.57;;;-2.50;99.90;;;;;;5094823;28;20196;-73
2024/01/19 05:08:00;;;;;;;53.67;30.20;;;-2.60;99.90;;;;;;5094683;28;20677;-73
2024/01/19 05:10:27;;;;;;;54.70;30.90;;;-2.50;99.90;;;;;;5094549;28;20239;-73
2024/01/19 05:12:53;;;;;;;50.43;27.93;;;-2.50;99.90;;;;;;5094405;28;20228;-73
2024/01/19 05:15:20;;;;;;;51.00;28.47;;;-2.50;99.90;;;;;;5093858;28;20196;-73
2024/01/19 05:17:48;;;;;;;52.50;30.17;;;-2.50;99.90;;;;;;5094237;28;20204;-73
2024/01/19 05:20:14;;;;;;;55.60;29.83;;;-2.50;99.90;;;;;;5094371;28;20189;-73
2024/01/19 05:22:41;;;;;;;54.60;29.07;;;-2.50;99.90;;;;;;5094289;28;20202;-73
2024/01/19 05:25:08;;;;;;;45.63;26.73;;;-2.50;99.90;;;;;;5094197;28;20253;-73
2024/01/19 05:27:35;;;;;;;49.77;27.90;;;-2.50;99.90;;;;;;5093992;28;20285;-73
2024/01/19 05:30:02;;;;;;;51.80;28.73;;;-2.40;99.90;;;;;;5094098;28;20205;-73
2024/01/19 05:32:29;;;;;;;51.70;29.97;;;-2.40;99.90;;;;;;5093905;28;20724;-73
2024/01/19 05:34:57;;;;;;;54.00;30.07;;;-2.40;99.90;;;;;;5094203;28;20337;-73
2024/01/19 05:37:23;;;;;;;48.10;27.87;;;-2.40;99.90;;;;;;5093885;28;20266;-73
2024/01/19 05:39:50;;;;;;;50.00;27.20;;;-2.40;99.90;;;;;;5093933;28;20289;-73
2024/01/19 05:42:17;;;;;;;38.23;24.10;;;-2.40;99.90;;;;;;5093872;28;20199;-73
2024/01/19 05:44:45;;;;;;;47.60;27.00;;;-2.40;99.90;;;;;;5093746;28;20198;-73
2024/01/19 05:47:11;;;;;;;42.87;26.37;;;-2.40;99.90;;;;;;5094019;28;20200;-73
2024/01/19 05:49:38;;;;;;;78.90;45.47;;;-2.30;99.90;;;;;;5093873;28;20200;-72
2024/01/19 05:52:06;;;;;;;103.00;53.90;;;-2.40;99.90;;;;;;5093756;28;20562;-72
2024/01/19 05:54:34;;;;;;;43.00;25.37;;;-2.40;99.90;;;;;;5093695;28;20220;-73
2024/01/19 05:57:00;;;;;;;37.90;24.03;;;-2.40;99.90;;;;;;5093544;28;20196;-72
2024/01/19 05:59:28;;;;;;;45.83;24.03;;;-2.40;99.90;;;;;;5078162;28;20228;-72
2024/01/19 06:01:54;;;;;;;41.47;23.87;;;-2.40;99.90;;;;;;5073378;28;20207;-73
2024/01/19 06:04:21;;;;;;;37.97;22.27;;;-2.40;99.90;;;;;;5073277;28;20595;-72
2024/01/19 06:06:48;;;;;;;41.83;25.17;;;-2.40;99.90;;;;;;5073061;28;20196;-72
2024/01/19 06:09:16;;;;;;;39.93;24.40;;;-2.40;99.90;;;;;;5073094;28;20257;-73
2024/01/19 06:11:42;;;;;;;46.23;25.10;;;-2.40;99.90;;;;;;5072890;28;20622;-73
2024/01/19 06:14:09;;;;;;;46.17;26.03;;;-2.40;99.90;;;;;;5073186;28;20251;-72
2024/01/19 06:16:38;;;;;;;42.63;26.03;;;-2.40;99.90;;;;;;5073141;28;20201;-71
2024/01/19 06:19:05;;;;;;;43.03;26.77;;;-2.30;99.90;;;;;;5072884;28;20231;-72
2024/01/19 06:21:32;;;;;;;50.67;28.67;;;-2.40;99.90;;;;;;5072953;28;20288;-73
2024/01/19 06:23:59;;;;;;;50.37;28.23;;;-2.30;99.90;;;;;;5072851;28;20193;-72
2024/01/19 06:26:32;;;;;;;51.13;28.43;;;-2.30;99.90;;;;;;5072888;28;20258;-72
2024/01/19 06:28:58;;;;;;;46.00;26.97;;;-2.30;99.90;;;;;;5092015;28;20239;-72
2024/01/19 06:31:25;;;;;;;50.20;29.43;;;-2.20;99.90;;;;;;5093133;28;20713;-73
2024/01/19 06:33:52;;;;;;;52.07;30.17;;;-2.20;99.90;;;;;;5094433;28;20529;-72
2024/01/19 06:36:18;;;;;;;48.43;27.90;;;-2.20;99.90;;;;;;5092837;28;20196;-73
2024/01/19 06:38:46;;;;;;;48.27;26.20;;;-2.20;99.90;;;;;;5092811;28;20223;-73
2024/01/19 06:41:12;;;;;;;44.80;23.90;;;-2.20;99.90;;;;;;5092884;28;20295;-72
2024/01/19 06:43:40;;;;;;;43.60;25.17;;;-2.20;99.90;;;;;;5092958;28;20192;-72
2024/01/19 06:46:07;;;;;;;45.23;25.33;;;-2.20;99.90;;;;;;5092795;28;20192;-72
2024/01/19 06:48:34;;;;;;;42.90;23.90;;;-2.30;99.90;;;;;;5092781;28;20306;-73
2024/01/19 06:51:00;;;;;;;45.80;26.73;;;-2.30;99.90;;;;;;5092713;28;20196;-72
2024/01/19 06:53:27;;;;;;;45.20;25.47;;;-2.30;99.90;;;;;;5092395;28;20196;-73
2024/01/19 06:55:53;;;;;;;44.37;24.70;;;-2.30;99.90;;;;;;5092545;28;20266;-73
2024/01/19 06:58:20;;;;;;;44.07;24.90;;;-2.40;99.90;;;;;;5092376;28;20700;-74
2024/01/19 07:00:48;;;;;;;45.93;26.67;;;-2.40;99.90;;;;;;5092698;28;20219;-72
2024/01/19 07:03:15;;;;;;;46.23;25.63;;;-2.40;99.90;;;;;;5092734;28;20231;-73
2024/01/19 07:05:42;;;;;;;47.20;24.70;;;-2.30;99.90;;;;;;5092691;28;20200;-72
2024/01/19 07:08:09;;;;;;;46.07;25.47;;;-2.40;99.90;;;;;;5092561;28;20291;-72
2024/01/19 07:10:37;;;;;;;44.93;25.10;;;-2.40;99.90;;;;;;5092873;28;20199;-73
2024/01/19 07:13:04;;;;;;;45.60;24.30;;;-2.40;99.90;;;;;;5092741;28;20199;-72
2024/01/19 07:15:30;;;;;;;45.57;25.93;;;-2.40;99.90;;;;;;5092538;28;20653;-72
2024/01/19 07:17:58;;;;;;;46.80;26.80;;;-2.40;99.90;;;;;;5092587;28;20200;-73
2024/01/19 07:20:25;;;;;;;41.07;25.27;;;-2.40;99.90;;;;;;5092308;28;20223;-74
2024/01/19 07:22:53;;;;;;;43.43;24.43;;;-2.40;99.90;;;;;;5092544;28;20240;-73
2024/01/19 07:25:20;;;;;;;41.00;23.63;;;-2.40;99.90;;;;;;5092461;28;20601;-73
2024/01/19 07:27:47;;;;;;;45.90;25.17;;;-2.40;99.90;;;;;;5092186;28;20237;-72
2024/01/19 07:30:13;;;;;;;45.10;25.13;;;-2.40;99.90;;;;;;5092401;28;20196;-72
2024/01/19 07:32:40;;;;;;;42.40;24.30;;;-2.40;99.90;;;;;;5092487;28;20200;-73
2024/01/19 07:35:08;;;;;;;39.63;21.83;;;-2.40;99.90;;;;;;5092338;28;20207;-74
2024/01/19 07:37:35;;;;;;;42.47;24.10;;;-2.40;99.90;;;;;;5092298;28;20740;-73
2024/01/19 07:40:01;;;;;;;47.10;26.03;;;-2.40;99.90;;;;;;5095410;28;20230;-74
2024/01/19 07:42:28;;;;;;;42.30;24.87;;;-2.40;99.90;;;;;;5096247;28;20192;-74
2024/01/19 07:44:55;;;;;;;43.07;25.90;;;-2.40;99.90;;;;;;5096368;28;20196;-73
2024/01/19 07:47:21;;;;;;;46.40;26.77;;;-2.40;99.90;;;;;;5096108;28;20200;-74
2024/01/19 07:49:48;;;;;;;48.23;27.10;;;-2.40;99.90;;;;;;5096038;28;20657;-74
2024/01/19 07:52:16;;;;;;;51.77;29.57;;;-2.40;99.90;;;;;;5096180;28;20258;-73
2024/01/19 07:54:42;;;;;;;60.00;30.70;;;-2.30;99.90;;;;;;5096103;28;20250;-73
2024/01/19 07:57:09;;;;;;;48.60;27.60;;;-2.30;99.90;;;;;;5096023;28;20203;-73
2024/01/19 07:59:36;;;;;;;43.53;24.57;;;-2.30;99.90;;;;;;5096496;28;20228;-73
2024/01/19 08:02:03;;;;;;;44.53;26.33;;;-2.20;99.90;;;;;;5095778;28;20196;-73
2024/01/19 08:04:30;;;;;;;48.67;27.83;;;-2.20;99.90;;;;;;5096207;28;20207;-73
2024/01/19 08:06:57;;;;;;;47.67;28.60;;;-2.10;99.90;;;;;;5095984;28;20208;-73
2024/01/19 08:09:24;;;;;;;41.93;25.43;;;-2.10;99.90;;;;;;5095919;28;20208;-73
2024/01/19 08:11:51;;;;;;;44.30;26.17;;;-2.10;99.90;;;;;;5095775;28;20648;-72
2024/01/19 08:14:18;;;;;;;39.77;24.33;;;-2.10;99.90;;;;;;5095884;28;20196;-73
2024/01/19 08:16:44;;;;;;;41.27;24.63;;;-2.10;99.90;;;;;;5095433;28;20200;-73
2024/01/19 08:19:11;;;;;;;41.80;25.63;;;-2.00;99.90;;;;;;5095577;28;20231;-72
2024/01/19 08:21:42;;;;;;;40.33;25.33;;;-2.00;99.90;;;;;;5095613;28;20196;-73
2024/01/19 08:24:08;;;;;;;40.43;23.27;;;-1.90;99.90;;;;;;5095613;28;20291;-73
2024/01/19 08:26:36;;;;;;;41.00;23.87;;;-1.90;99.90;;;;;;5095439;28;20200;-73
2024/01/19 08:29:03;;;;;;;35.53;22.07;;;-1.90;99.90;;;;;;5074948;28;20204;-72
2024/01/19 08:31:30;;;;;;;39.53;23.67;;;-1.90;99.90;;;;;;5075300;28;20200;-74
2024/01/19 08:33:57;;;;;;;39.50;23.23;;;-1.80;99.90;;;;;;5075214;28;20205;-72
2024/01/19 08:36:24;;;;;;;38.50;25.07;;;-1.90;99.90;;;;;;5075121;28;20203;-73
2024/01/19 08:38:50;;;;;;;48.80;27.73;;;-1.90;99.90;;;;;;5074843;28;20258;-73
2024/01/19 08:41:17;;;;;;;37.27;22.50;;;-1.80;99.90;;;;;;5074829;28;20204;-74
2024/01/19 08:43:45;;;;;;;30.07;17.63;;;-1.80;99.90;;;;;;5074814;28;20201;-74
2024/01/19 08:46:12;;;;;;;29.23;18.67;;;-1.90;99.90;;;;;;5075064;28;20254;-74
2024/01/19 08:48:39;;;;;;;29.90;19.23;;;-1.90;99.90;;;;;;5074786;28;20197;-74
2024/01/19 08:51:06;;;;;;;29.87;18.87;;;-1.90;99.90;;;;;;5074121;28;20274;-74
2024/01/19 08:53:33;;;;;;;32.07;18.03;;;-1.90;99.90;;;;;;5074727;28;20259;-74
2024/01/19 08:55:59;;;;;;;27.10;17.57;;;-1.90;99.90;;;;;;5076657;28;20200;-73
2024/01/19 08:58:27;;;;;;;38.27;21.63;;;-1.90;99.90;;;;;;5075708;28;20725;-73
2024/01/19 09:00:55;;;;;;;34.77;22.27;;;-1.70;99.90;;;;;;5074444;28;20229;-73
2024/01/19 09:03:24;;;;;;;32.13;20.60;;;-1.70;99.90;;;;;;5074145;28;20201;-73
2024/01/19 09:05:52;;;;;;;30.30;18.63;;;-1.80;99.90;;;;;;5074495;28;20254;-73
2024/01/19 09:08:19;;;;;;;25.57;16.30;;;-1.80;99.90;;;;;;5074237;28;20204;-74
2024/01/19 09:10:46;;;;;;;31.00;18.57;;;-1.80;99.90;;;;;;5074136;28;20201;-75
2024/01/19 09:13:12;;;;;;;30.90;19.33;;;-1.90;99.90;;;;;;5074452;28;20193;-72
2024/01/19 09:15:40;;;;;;;38.43;22.57;;;-1.80;99.90;;;;;;5074392;28;20197;-72
2024/01/19 09:18:08;;;;;;;37.73;27.77;;;-1.60;99.90;;;;;;5073625;28;20224;-73
2024/01/19 09:20:35;;;;;;;55.70;46.23;;;-1.60;99.90;;;;;;5073766;28;20723;-73
2024/01/19 09:23:01;;;;;;;25.73;16.10;;;-1.60;99.90;;;;;;5074243;28;20280;-73
2024/01/19 09:25:28;;;;;;;26.27;17.47;;;-1.80;99.90;;;;;;5074141;28;20201;-73
2024/01/19 09:27:56;;;;;;;35.30;26.73;;;-1.80;99.90;;;;;;5085026;28;20228;-73
2024/01/19 09:30:22;;;;;;;26.50;16.87;;;-1.80;99.90;;;;;;5094421;28;20210;-74
2024/01/19 09:32:49;;;;;;;28.27;18.07;;;-1.80;99.90;;;;;;5094230;28;20249;-74
2024/01/19 09:35:17;;;;;;;25.93;16.47;;;-1.70;99.90;;;;;;5094274;28;20193;-73
2024/01/19 09:37:44;;;;;;;25.27;15.90;;;-1.70;99.90;;;;;;5094318;28;20204;-74
2024/01/19 09:40:12;;;;;;;25.10;15.10;;;-1.60;99.90;;;;;;5093879;28;20228;-74
2024/01/19 09:42:40;;;;;;;21.43;14.50;;;-1.60;99.90;;;;;;5093917;28;20648;-73
2024/01/19 09:45:17;;;;;;;21.90;14.23;;;-1.70;99.90;;;;;;5094066;28;20208;-74
2024/01/19 09:47:59;;;;;;;27.27;15.00;;;-1.90;99.90;;;;;;5093992;28;20599;-74
2024/01/19 09:50:35;;;;;;;20.00;13.20;;;-1.60;99.90;;;;;;5093729;28;20283;-72
2024/01/19 09:53:05;;;;;;;19.10;12.67;;;-1.60;99.90;;;;;;5093963;28;20286;-73
2024/01/19 09:55:34;;;;;;;19.57;12.37;;;-1.80;99.90;;;;;;5093836;28;20249;-73
2024/01/19 09:58:01;;;;;;;17.63;12.10;;;-1.80;99.90;;;;;;5093864;28;20200;-74
2024/01/19 10:00:28;;;;;;;18.10;12.80;;;-1.60;99.90;;;;;;5093584;28;20224;-74
2024/01/19 10:02:55;;;;;;;18.33;13.23;;;-1.60;99.90;;;;;;5093458;28;20200;-74
2024/01/19 10:05:22;;;;;;;22.93;13.23;;;-1.40;99.90;;;;;;5093715;28;20199;-74
2024/01/19 10:07:55;;;;;;;20.73;12.70;;;-1.30;99.90;;;;;;5093643;28;20196;-74
2024/01/19 10:10:22;;;;;;;22.27;13.60;;;-1.10;99.90;;;;;;5093560;28;20193;-74
2024/01/19 10:12:48;;;;;;;19.37;12.83;;;-1.00;99.90;;;;;;5093463;28;20269;-74
2024/01/19 10:15:16;;;;;;;18.00;12.97;;;-1.00;99.90;;;;;;5093312;28;20200;-74
2024/01/19 10:17:45;;;;;;;18.03;12.53;;;-0.70;99.90;;;;;;5093155;28;20564;-74
2024/01/19 10:20:13;;;;;;;18.67;12.10;;;-0.40;99.90;;;;;;5093334;28;20311;-74
2024/01/19 10:22:40;;;;;;;20.07;12.50;;;0.00;99.90;;;;;;5093323;28;20615;-74
2024/01/19 10:25:10;;;;;;;15.93;10.70;;;0.40;99.90;;;;;;5079277;28;20226;-74
2024/01/19 10:27:39;;;;;;;14.40;10.77;;;0.80;99.90;;;;;;5079347;28;20281;-75
2024/01/19 10:30:10;;;;;;;14.73;11.17;;;0.90;99.90;;;;;;5092699;28;20200;-76
2024/01/19 10:32:39;;;;;;;14.50;10.57;;;1.10;99.90;;;;;;5093331;28;20218;-76
2024/01/19 10:35:08;;;;;;;15.67;10.80;;;1.60;99.90;;;;;;5092906;28;20195;-75
2024/01/19 10:37:35;;;;;;;17.53;11.17;;;2.20;99.90;;;;;;5092844;28;20246;-75
2024/01/19 10:40:17;;;;;;;15.73;10.70;;;2.60;99.90;;;;;;5092696;28;20220;-76
2024/01/19 10:42:45;;;;;;;15.37;12.07;;;2.50;99.90;;;;;;5092918;28;20204;-76
2024/01/19 10:45:20;;;;;;;16.00;11.17;;;3.50;99.90;;;;;;5092811;28;20216;-75
2024/01/19 10:47:48;;;;;;;13.40;10.50;;;3.20;99.90;;;;;;5092660;28;20196;-76
2024/01/19 10:50:16;;;;;;;15.90;11.70;;;3.90;99.90;;;;;;5092636;28;20196;-74
2024/01/19 10:52:44;;;;;;;15.80;10.97;;;2.90;99.90;;;;;;5092611;28;20831;-73
2024/01/19 10:55:18;;;;;;;17.43;12.17;;;3.40;99.90;;;;;;5091818;28;20200;-72
2024/01/19 10:57:45;;;;;;;15.57;11.47;;;3.90;99.90;;;;;;5093080;28;20306;-74
2024/01/19 11:00:23;;;;;;;15.00;11.17;;;4.80;99.90;;;;;;5092735;28;20227;-75
2024/01/19 11:02:52;;;;;;;17.07;12.07;;;3.50;99.90;;;;;;5093238;28;20605;-75
2024/01/19 11:05:20;;;;;;;16.53;12.30;;;2.50;99.90;;;;;;5092787;28;20197;-76
2024/01/19 11:07:48;;;;;;;16.00;11.83;;;2.70;99.90;;;;;;5093126;28;20612;-73
2024/01/19 11:10:15;;;;;;;16.80;12.27;;;2.20;99.90;;;;;;5093136;28;20590;-74
2024/01/19 11:12:48;;;;;;;16.23;11.73;;;3.50;99.90;;;;;;5092970;28;20204;-75
2024/01/19 11:15:31;;;;;;;15.97;12.27;;;4.70;99.90;;;;;;5096283;28;20647;-75
2024/01/19 11:18:01;;;;;;;17.40;13.00;;;5.00;99.90;;;;;;5096921;28;20210;-73
2024/01/19 11:20:31;;;;;;;15.83;12.40;;;5.70;99.90;;;;;;5097189;28;20251;-74
2024/01/19 11:22:58;;;;;;;15.17;12.27;;;6.40;99.90;;;;;;5097045;28;20283;-75
2024/01/19 11:25:39;;;;;;;15.33;11.63;;;4.90;99.90;;;;;;5096731;28;20227;-75
2024/01/19 11:28:16;;;;;;;18.10;14.10;;;4.60;99.90;;;;;;5096746;28;20286;-73
2024/01/19 11:31:10;;;;;;;17.83;13.40;;;4.40;99.90;;;;;;5096720;28;20204;-73
2024/01/19 11:33:37;;;;;;;20.10;13.97;;;5.50;99.90;;;;;;5096775;28;20206;-72
2024/01/19 11:36:04;;;;;;;14.70;11.47;;;6.70;99.90;;;;;;5096507;28;20192;-73
2024/01/19 11:38:44;;;;;;;15.23;12.30;;;5.90;99.90;;;;;;5096529;28;20192;-72
2024/01/19 11:41:12;;;;;;;14.70;10.03;;;5.80;99.90;;;;;;5096580;28;20250;-72
2024/01/19 11:43:43;;;;;;;15.40;12.17;;;5.50;99.90;;;;;;5096478;28;20204;-72
2024/01/19 11:46:11;;;;;;;14.80;11.60;;;7.80;99.90;;;;;;5096516;28;20253;-73
2024/01/19 11:48:44;;;;;;;13.17;10.90;;;9.40;94.80;;;;;;5096265;28;20338;-72
2024/01/19 11:51:32;;;;;;;13.37;11.00;;;7.40;92.60;;;;;;5096069;28;20640;-72
2024/01/19 11:54:04;;;;;;;15.90;12.17;;;7.10;92.80;;;;;;5096548;28;20204;-72
2024/01/19 11:56:31;;;;;;;16.87;11.70;;;7.90;92.70;;;;;;5096357;28;20567;-71
2024/01/19 11:58:59;;;;;;;14.90;12.07;;;7.00;93.60;;;;;;5095965;28;20202;-72
2024/01/19 12:01:26;;;;;;;16.13;12.93;;;6.80;93.90;;;;;;5095753;28;20273;-72
2024/01/19 12:03:54;;;;;;;18.33;12.57;;;6.30;93.00;;;;;;5095791;28;20204;-73
2024/01/19 12:06:21;;;;;;;17.70;13.87;;;7.30;94.80;;;;;;5095719;28;20241;-72
2024/01/19 12:09:02;;;;;;;17.30;13.53;;;5.90;94.90;;;;;;5095870;28;20269;-71
2024/01/19 12:11:29;;;;;;;17.70;14.10;;;3.80;99.90;;;;;;5095776;28;20204;-71
2024/01/19 12:14:00;;;;;;;16.57;13.40;;;2.90;99.90;;;;;;5095570;28;20622;-71
2024/01/19 12:16:28;;;;;;;20.13;14.07;;;2.40;99.90;;;;;;5095858;28;20185;-72
2024/01/19 12:18:55;;;;;;;17.03;13.20;;;2.10;99.90;;;;;;5095632;28;20200;-72
2024/01/19 12:21:21;;;;;;;20.87;13.73;;;1.50;99.90;;;;;;5095654;28;20270;-72
2024/01/19 12:23:52;;;;;;;21.27;13.93;;;1.70;99.90;;;;;;5096537;28;20203;-72
2024/01/19 12:26:21;;;;;;;15.97;12.10;;;2.30;99.90;;;;;;5095261;28;20228;-73
2024/01/19 12:28:50;;;;;;;19.43;12.70;;;2.10;99.90;;;;;;5095245;28;20240;-72
2024/01/19 12:31:24;;;;;;;22.00;13.07;;;1.60;99.90;;;;;;5095546;28;20206;-72